createdAt,value
2022-12-09T00:02:03.008Z,95671.88
2022-12-09T00:06:54.837Z,95669.88
2022-12-09T00:11:46.746Z,95666.69
2022-12-09T00:16:39.883Z,95661.31
2022-12-09T00:21:33.752Z,95661.94
2022-12-09T00:26:27.572Z,95670.09
2022-12-09T00:31:24.483Z,95672.47
2022-12-09T00:36:20.229Z,95653.34
2022-12-09T00:41:14.229Z,95653.16
2022-12-09T00:46:06.961Z,95656.16
2022-12-09T00:50:58.906Z,95654.16
2022-12-09T00:55:50.731Z,95645.41
2022-12-09T01:00:42.526Z,95661.94
2022-12-09T01:05:37.077Z,95662.94
2022-12-09T01:10:29.007Z,95671.47
2022-12-09T01:15:20.668Z,95662.72
2022-12-09T01:20:12.619Z,95652.75
2022-12-09T01:25:05.291Z,95656.75
2022-12-09T01:29:57.157Z,95653.94
2022-12-09T01:34:48.900Z,95652.75
2022-12-09T01:39:42.126Z,95639.81
2022-12-09T01:44:34.505Z,95629.88
2022-12-09T01:49:39.164Z,95617.16
2022-12-09T01:54:32.558Z,95620.16
2022-12-09T02:04:41.068Z,95614.75
2022-12-09T02:09:32.899Z,95607.22
2022-12-09T02:15:05.552Z,95592.91
2022-12-09T02:20:45.307Z,95581.56
2022-12-09T02:25:49.874Z,95583.16
2022-12-09T02:31:23.029Z,95574.41
2022-12-09T02:36:20.404Z,95562.09
2022-12-09T02:41:24.480Z,95556.97
2022-12-09T02:46:19.956Z,95558.13
2022-12-09T02:51:18.178Z,95544.81
2022-12-09T02:56:12.888Z,95532.69
2022-12-09T03:01:04.798Z,95518.97
2022-12-09T03:05:57.026Z,95516.78
2022-12-09T03:11:18.077Z,95513.03
2022-12-09T03:16:43.529Z,95510.47
2022-12-09T03:21:42.226Z,95513.63
2022-12-09T03:26:38.934Z,95506.06
2022-12-09T03:31:34.542Z,95505.88
2022-12-09T03:36:36.168Z,95486.56
2022-12-09T03:41:34.171Z,95486.38
2022-12-09T03:46:29.767Z,95470.69
2022-12-09T03:51:38.802Z,95471.09
2022-12-09T03:56:41.228Z,95458.78
2022-12-09T04:01:33.790Z,95448.03
2022-12-09T04:06:25.996Z,95436.53
2022-12-09T04:11:17.783Z,95428.41
2022-12-09T04:16:10.053Z,95422.22
2022-12-09T04:41:40.749Z,95386.97
2022-12-09T04:56:52.701Z,95367.13
2022-12-09T05:06:52.728Z,95375.00
2022-12-09T05:16:58.199Z,95366.06
2022-12-09T06:23:13.089Z,95369.22
2022-12-09T06:43:24.145Z,95345.28
2022-12-09T07:08:47.862Z,95335.78
2022-12-09T09:45:18.661Z,95291.44
2022-12-09T09:51:05.831Z,95288.72
2022-12-09T12:21:11.075Z,95173.22
2022-12-09T14:05:15.737Z,95199.41
2022-12-09T22:32:58.277Z,95434.53
2022-12-09T22:53:17.079Z,95441.72
